createdAt,value
2018-12-02T00:00:54.936Z,3.50
2018-12-02T00:03:24.259Z,3.60
2018-12-02T00:05:53.475Z,3.60
2018-12-02T00:08:22.600Z,3.60
2018-12-02T00:10:51.778Z,3.60
2018-12-02T00:13:21.623Z,3.60
2018-12-02T00:15:50.839Z,3.60
2018-12-02T00:18:20.072Z,3.60
2018-12-02T00:20:49.501Z,3.70
2018-12-02T00:23:18.773Z,3.70
2018-12-02T00:25:47.925Z,3.70
2018-12-02T00:28:17.092Z,3.70
2018-12-02T00:30:46.393Z,3.70
2018-12-02T00:33:15.618Z,3.80
2018-12-02T00:35:44.759Z,3.80
2018-12-02T00:38:13.962Z,3.80
2018-12-02T00:40:43.137Z,3.80
2018-12-02T00:43:12.302Z,3.80
2018-12-02T00:45:41.614Z,3.80
2018-12-02T00:48:10.783Z,3.80
2018-12-02T00:50:39.942Z,3.80
2018-12-02T00:53:09.977Z,3.80
2018-12-02T00:55:41.766Z,3.80
2018-12-02T00:58:10.927Z,3.90
2018-12-02T01:00:40.153Z,3.90
2018-12-02T01:03:10.213Z,3.90
2018-12-02T01:05:39.436Z,3.90
2018-12-02T01:08:08.660Z,3.90
2018-12-02T01:10:37.960Z,3.90
2018-12-02T01:13:09.051Z,3.90
2018-12-02T01:15:39.300Z,3.90
2018-12-02T01:18:08.768Z,3.90
2018-12-02T01:20:38.695Z,3.90
2018-12-02T01:23:08.053Z,3.90
2018-12-02T01:25:37.511Z,3.90
2018-12-02T01:28:07.289Z,3.80
2018-12-02T01:30:36.511Z,3.90
2018-12-02T01:33:05.800Z,3.80
2018-12-02T01:35:35.764Z,3.90
2018-12-02T01:38:04.980Z,3.90
2018-12-02T01:40:34.188Z,3.90
2018-12-02T01:43:03.414Z,3.90
2018-12-02T01:45:32.625Z,3.90
2018-12-02T01:48:01.819Z,3.90
2018-12-02T01:50:31.039Z,3.90
2018-12-02T01:53:00.257Z,3.90
2018-12-02T01:55:29.721Z,3.80
2018-12-02T01:57:58.899Z,3.80
2018-12-02T02:00:28.749Z,3.80
2018-12-02T02:02:58.070Z,3.80
2018-12-02T02:05:27.569Z,3.90
2018-12-02T02:07:56.715Z,3.90
2018-12-02T02:10:26.757Z,3.90
2018-12-02T02:12:56.086Z,3.90
2018-12-02T02:15:25.392Z,3.90
2018-12-02T02:17:54.586Z,3.90
2018-12-02T02:20:26.086Z,3.90
2018-12-02T02:22:55.302Z,3.90
2018-12-02T02:25:24.726Z,3.90
2018-12-02T02:27:55.363Z,3.90
2018-12-02T02:30:25.567Z,4.00
2018-12-02T02:32:54.767Z,3.90
2018-12-02T02:35:24.070Z,4.00
2018-12-02T02:37:54.389Z,4.00
2018-12-02T02:40:30.644Z,4.00
2018-12-02T02:42:59.837Z,4.00
2018-12-02T02:45:29.054Z,4.00
2018-12-02T02:47:58.220Z,4.00
2018-12-02T02:50:27.397Z,3.90
2018-12-02T02:52:57.851Z,3.90
2018-12-02T02:55:27.103Z,3.90
2018-12-02T02:57:56.461Z,3.90
2018-12-02T03:00:26.505Z,3.90
2018-12-02T03:02:55.761Z,3.90
2018-12-02T03:05:25.005Z,3.90
2018-12-02T03:07:54.217Z,3.90
2018-12-02T03:10:23.435Z,3.90
2018-12-02T03:12:54.169Z,3.90
2018-12-02T03:15:23.928Z,3.80
2018-12-02T03:17:53.168Z,3.70
2018-12-02T03:20:22.928Z,3.60
2018-12-02T03:22:52.951Z,3.50
2018-12-02T03:25:23.128Z,3.50
2018-12-02T03:27:52.369Z,3.50
2018-12-02T03:30:22.593Z,3.50
2018-12-02T03:32:51.989Z,3.40
2018-12-02T03:35:22.069Z,3.40
2018-12-02T03:37:51.470Z,3.40
2018-12-02T03:40:22.626Z,3.40
2018-12-02T03:42:52.285Z,3.40
2018-12-02T03:45:25.086Z,3.40
2018-12-02T03:47:54.239Z,3.40
2018-12-02T03:50:23.882Z,3.40
2018-12-02T03:52:53.075Z,3.50
2018-12-02T03:55:22.267Z,3.50
2018-12-02T03:57:51.474Z,3.50
2018-12-02T04:00:21.578Z,3.50
2018-12-02T04:02:51.227Z,3.50
2018-12-02T04:05:21.458Z,3.50
2018-12-02T04:07:51.092Z,3.50
2018-12-02T04:10:20.752Z,3.60
2018-12-02T04:12:51.754Z,3.60
2018-12-02T04:15:22.838Z,3.60
2018-12-02T04:17:52.089Z,3.70
2018-12-02T04:20:21.495Z,3.70
2018-12-02T04:22:52.278Z,3.70
2018-12-02T04:25:22.702Z,3.70
2018-12-02T04:27:51.917Z,3.60
2018-12-02T04:30:21.701Z,3.70
2018-12-02T04:32:51.694Z,3.70
2018-12-02T04:35:25.725Z,3.70
2018-12-02T04:37:55.048Z,3.70
2018-12-02T04:40:24.323Z,3.70
2018-12-02T04:42:53.481Z,3.70
2018-12-02T04:45:22.727Z,3.70
2018-12-02T04:47:51.963Z,3.70
2018-12-02T04:50:23.777Z,3.60
2018-12-02T04:52:53.059Z,3.60
2018-12-02T04:55:22.291Z,3.50
2018-12-02T04:57:51.511Z,3.50
2018-12-02T05:00:21.298Z,3.50
2018-12-02T05:02:52.331Z,3.50
2018-12-02T05:05:24.135Z,3.40
2018-12-02T05:07:53.838Z,3.40
2018-12-02T05:10:23.150Z,3.40
2018-12-02T05:12:52.515Z,3.40
2018-12-02T05:15:22.320Z,3.50
2018-12-02T05:17:51.564Z,3.50
2018-12-02T05:20:22.084Z,3.50
2018-12-02T05:22:51.270Z,3.60
2018-12-02T05:25:20.530Z,3.60
2018-12-02T05:27:49.787Z,3.60
2018-12-02T05:30:19.953Z,3.60
2018-12-02T05:32:50.990Z,3.70
2018-12-02T05:35:20.285Z,3.70
2018-12-02T05:37:49.482Z,3.70
2018-12-02T05:40:20.575Z,3.80
2018-12-02T05:42:49.830Z,3.80
2018-12-02T05:45:19.439Z,3.80
2018-12-02T05:47:48.670Z,3.90
2018-12-02T05:50:21.692Z,3.90
2018-12-02T05:52:54.741Z,3.90
2018-12-02T05:55:26.014Z,3.90
2018-12-02T05:57:55.283Z,3.90
2018-12-02T06:00:24.530Z,3.90
2018-12-02T06:02:53.731Z,3.90
2018-12-02T06:05:22.961Z,4.00
2018-12-02T06:07:52.176Z,4.00
2018-12-02T06:10:22.232Z,3.90
2018-12-02T06:12:51.460Z,4.00
2018-12-02T06:15:21.237Z,4.00
2018-12-02T06:17:50.521Z,4.00
2018-12-02T06:20:22.503Z,4.00
2018-12-02T06:22:53.514Z,4.00
2018-12-02T06:25:23.454Z,4.00
2018-12-02T06:27:52.637Z,4.00
2018-12-02T06:30:25.764Z,4.00
2018-12-02T06:32:59.162Z,3.90
2018-12-02T06:35:28.337Z,4.00
2018-12-02T06:37:58.472Z,3.90
2018-12-02T06:40:28.540Z,3.90
2018-12-02T06:42:57.751Z,3.90
2018-12-02T06:45:26.993Z,3.90
2018-12-02T06:47:56.242Z,3.90
2018-12-02T06:50:26.114Z,3.80
2018-12-02T06:52:56.143Z,3.80
2018-12-02T06:55:31.464Z,3.80
2018-12-02T06:58:11.004Z,3.80
2018-12-02T07:00:48.836Z,3.80
2018-12-02T07:04:35.332Z,3.80
2018-12-02T07:07:04.838Z,3.80
2018-12-02T07:09:34.014Z,3.90
2018-12-02T07:12:03.231Z,3.80
2018-12-02T07:14:32.407Z,3.80
2018-12-02T07:17:01.898Z,3.80
2018-12-02T07:19:36.390Z,3.80
2018-12-02T07:22:12.527Z,3.80
2018-12-02T07:24:43.394Z,3.80
2018-12-02T07:27:14.279Z,3.80
2018-12-02T07:29:43.524Z,3.90
2018-12-02T07:32:12.845Z,3.90
2018-12-02T07:34:42.076Z,3.90
2018-12-02T07:37:16.939Z,3.90
2018-12-02T07:39:57.996Z,4.00
2018-12-02T07:42:27.221Z,4.00
2018-12-02T07:44:56.542Z,4.10
2018-12-02T07:47:25.788Z,4.10
2018-12-02T07:49:55.283Z,4.10
2018-12-02T07:52:24.685Z,4.10
2018-12-02T07:54:53.910Z,4.10
2018-12-02T07:57:23.178Z,4.10
2018-12-02T07:59:52.380Z,4.20
2018-12-02T08:02:21.586Z,4.20
2018-12-02T08:04:50.780Z,4.20
2018-12-02T08:07:20.411Z,4.10
2018-12-02T08:09:49.650Z,4.20
2018-12-02T08:12:18.796Z,4.20
2018-12-02T08:14:47.962Z,4.20
2018-12-02T08:17:17.164Z,4.10
2018-12-02T08:19:46.336Z,4.10
2018-12-02T08:22:15.520Z,4.20
2018-12-02T08:24:44.740Z,4.20
2018-12-02T08:27:13.967Z,4.20
2018-12-02T08:29:43.298Z,4.20
2018-12-02T08:32:12.474Z,4.20
2018-12-02T08:34:41.713Z,4.20
2018-12-02T08:37:10.939Z,4.20
2018-12-02T08:39:40.239Z,4.20
2018-12-02T08:42:09.557Z,4.20
2018-12-02T08:44:38.718Z,4.20
2018-12-02T08:47:07.977Z,4.20
2018-12-02T08:49:37.172Z,4.20
2018-12-02T08:52:06.414Z,4.20
2018-12-02T08:54:35.637Z,4.20
2018-12-02T08:57:04.882Z,4.20
2018-12-02T08:59:34.124Z,4.20
2018-12-02T09:02:03.666Z,4.30
2018-12-02T09:04:32.880Z,4.30
2018-12-02T09:07:02.047Z,4.30
2018-12-02T09:09:31.267Z,4.40
2018-12-02T09:12:00.556Z,4.40
2018-12-02T09:14:29.736Z,4.40
2018-12-02T09:16:58.916Z,4.50
2018-12-02T09:19:28.314Z,4.50
2018-12-02T09:21:57.643Z,4.50
2018-12-02T09:24:26.861Z,4.50
2018-12-02T09:26:56.097Z,4.50
2018-12-02T09:29:25.326Z,4.50
2018-12-02T09:31:54.537Z,4.50
2018-12-02T09:34:23.686Z,4.50
2018-12-02T09:36:57.857Z,4.50
2018-12-02T09:39:22.150Z,4.50
2018-12-02T09:41:51.314Z,4.50
2018-12-02T09:44:20.595Z,4.60
2018-12-02T09:46:49.740Z,4.60
2018-12-02T09:49:19.179Z,4.60
2018-12-02T09:51:48.373Z,4.60
2018-12-02T09:54:23.223Z,4.60
2018-12-02T09:56:46.819Z,4.60
2018-12-02T09:59:15.980Z,4.60
2018-12-02T10:01:45.226Z,4.70
2018-12-02T10:04:14.419Z,4.60
2018-12-02T10:06:45.720Z,4.60
2018-12-02T10:09:15.038Z,4.60
2018-12-02T10:11:44.399Z,4.70
2018-12-02T10:14:13.743Z,4.60
2018-12-02T10:16:43.102Z,4.60
2018-12-02T10:19:12.414Z,4.60
2018-12-02T10:21:41.708Z,4.70
2018-12-02T10:24:10.918Z,4.70
2018-12-02T10:26:40.264Z,4.70
2018-12-02T10:29:10.222Z,4.70
2018-12-02T10:31:39.617Z,4.70
2018-12-02T10:34:09.567Z,4.70
2018-12-02T10:36:40.006Z,4.60
2018-12-02T10:39:10.076Z,4.60
2018-12-02T10:41:40.156Z,4.60
2018-12-02T10:44:09.550Z,4.60
2018-12-02T10:46:43.804Z,4.60
2018-12-02T10:49:08.965Z,4.60
2018-12-02T10:51:39.153Z,4.60
2018-12-02T10:54:08.398Z,4.70
2018-12-02T10:56:37.761Z,4.70
2018-12-02T10:59:08.462Z,4.70
2018-12-02T11:01:37.701Z,4.70
2018-12-02T11:04:08.024Z,4.70
2018-12-02T11:06:38.164Z,4.80
2018-12-02T11:09:11.006Z,4.70
2018-12-02T11:11:40.689Z,4.70
2018-12-02T11:14:11.431Z,4.70
2018-12-02T11:16:41.400Z,4.80
2018-12-02T11:19:11.268Z,4.70
2018-12-02T11:21:42.086Z,4.80
2018-12-02T11:24:11.399Z,4.80
2018-12-02T11:26:40.708Z,4.80
2018-12-02T11:29:10.056Z,4.80
2018-12-02T11:31:39.227Z,4.80
2018-12-02T11:34:08.624Z,4.80
2018-12-02T11:36:38.451Z,4.90
2018-12-02T11:39:09.827Z,4.90
2018-12-02T11:41:39.112Z,4.90
2018-12-02T11:44:08.404Z,5.00
2018-12-02T11:46:38.379Z,5.00
2018-12-02T11:49:09.160Z,4.90
2018-12-02T11:51:38.560Z,5.00
2018-12-02T11:54:08.511Z,5.00
2018-12-02T11:56:37.876Z,5.00
2018-12-02T11:59:08.330Z,5.00
2018-12-02T12:01:37.635Z,5.00
2018-12-02T12:04:07.853Z,5.00
2018-12-02T12:06:37.509Z,5.10
2018-12-02T12:09:08.249Z,5.10
2018-12-02T12:11:37.458Z,5.00
2018-12-02T12:14:06.713Z,5.00
2018-12-02T12:16:35.813Z,5.10
2018-12-02T12:19:05.889Z,5.10
2018-12-02T12:21:35.034Z,5.20
2018-12-02T12:24:04.239Z,5.10
2018-12-02T12:26:33.426Z,5.10
2018-12-02T12:29:02.563Z,5.10
2018-12-02T12:31:31.742Z,5.10
2018-12-02T12:34:00.899Z,5.20
2018-12-02T12:36:31.303Z,5.10
2018-12-02T12:39:00.473Z,5.20
2018-12-02T12:41:29.652Z,5.20
2018-12-02T12:43:58.805Z,5.20
2018-12-02T12:46:28.013Z,5.30
2018-12-02T12:48:57.212Z,5.30
2018-12-02T12:51:26.659Z,5.30
2018-12-02T12:53:55.791Z,5.30
2018-12-02T12:56:24.993Z,5.30
2018-12-02T12:58:54.175Z,5.30
2018-12-02T13:01:23.335Z,5.30
2018-12-02T13:03:52.514Z,5.30
2018-12-02T13:06:21.724Z,5.30
2018-12-02T13:08:50.905Z,5.30
2018-12-02T13:11:20.142Z,5.30
2018-12-02T13:13:49.535Z,5.30
2018-12-02T13:16:18.741Z,5.30
2018-12-02T13:18:48.262Z,5.30
2018-12-02T13:21:17.454Z,5.30
2018-12-02T13:23:46.594Z,5.30
2018-12-02T13:26:15.784Z,5.40
2018-12-02T13:28:44.948Z,5.40
2018-12-02T13:31:14.205Z,5.30
2018-12-02T13:33:43.352Z,5.30
2018-12-02T13:36:12.539Z,5.30
2018-12-02T13:38:41.734Z,5.20
2018-12-02T13:41:10.918Z,5.30
2018-12-02T13:43:40.058Z,5.30
2018-12-02T13:46:09.220Z,5.20
2018-12-02T13:48:38.352Z,5.30
2018-12-02T13:51:07.549Z,5.30
2018-12-02T13:53:41.801Z,5.30
2018-12-02T13:56:10.918Z,5.30
2018-12-02T13:58:40.090Z,5.30
2018-12-02T14:01:09.368Z,5.30
2018-12-02T14:03:38.560Z,5.20
2018-12-02T14:06:07.824Z,5.30
2018-12-02T14:08:36.920Z,5.20
2018-12-02T14:11:06.280Z,5.20
2018-12-02T14:13:35.454Z,5.20
2018-12-02T14:16:44.379Z,5.20
2018-12-02T14:19:13.970Z,5.20
2018-12-02T14:21:43.142Z,5.20
2018-12-02T14:24:12.713Z,5.20
2018-12-02T14:26:43.781Z,5.20
2018-12-02T14:29:34.834Z,5.30
2018-12-02T14:32:06.753Z,5.30
2018-12-02T14:34:35.907Z,5.30
2018-12-02T14:37:05.101Z,5.20
2018-12-02T14:39:34.370Z,5.20
2018-12-02T14:42:03.599Z,5.00
2018-12-02T14:44:32.803Z,5.00
2018-12-02T14:47:01.938Z,5.00
2018-12-02T14:49:31.139Z,5.00
2018-12-02T14:52:00.365Z,5.00
2018-12-02T14:54:29.499Z,5.00
2018-12-02T14:56:58.664Z,5.00
2018-12-02T14:59:27.865Z,5.00
2018-12-02T15:01:57.052Z,5.10
2018-12-02T15:04:26.208Z,5.00
2018-12-02T15:06:55.310Z,4.90
2018-12-02T15:09:24.501Z,5.00
2018-12-02T15:11:58.972Z,5.00
2018-12-02T15:14:28.178Z,4.90
2018-12-02T15:16:57.338Z,4.90
2018-12-02T15:19:26.478Z,4.90
2018-12-02T15:21:55.613Z,4.90
2018-12-02T15:24:24.800Z,4.90
2018-12-02T15:26:54.002Z,4.80
2018-12-02T15:29:23.143Z,4.90
2018-12-02T15:31:52.393Z,4.80
2018-12-02T15:34:21.566Z,4.80
2018-12-02T15:36:50.724Z,4.80
2018-12-02T15:39:19.884Z,4.80
2018-12-02T15:41:49.068Z,4.80
2018-12-02T15:44:18.208Z,4.80
2018-12-02T15:46:47.386Z,4.70
2018-12-02T15:49:16.513Z,4.70
2018-12-02T15:51:45.658Z,4.70
2018-12-02T15:54:14.804Z,4.80
2018-12-02T15:56:43.982Z,4.80
2018-12-02T15:59:13.148Z,4.80
2018-12-02T16:01:42.336Z,4.90
2018-12-02T16:04:11.542Z,4.90
2018-12-02T16:06:40.686Z,4.90
2018-12-02T16:09:10.150Z,4.90
2018-12-02T16:11:39.346Z,4.90
2018-12-02T16:14:08.481Z,4.90
2018-12-02T16:16:37.653Z,4.90
2018-12-02T16:19:06.880Z,4.90
2018-12-02T16:21:36.061Z,4.90
2018-12-02T16:24:05.219Z,4.90
2018-12-02T16:26:34.373Z,4.90
2018-12-02T16:29:03.551Z,4.90
2018-12-02T16:31:32.703Z,4.80
2018-12-02T16:34:01.938Z,4.80
2018-12-02T16:36:31.104Z,4.80
2018-12-02T16:39:00.305Z,4.80
2018-12-02T16:41:29.534Z,4.80
2018-12-02T16:43:58.651Z,4.80
2018-12-02T16:46:27.851Z,4.80
2018-12-02T16:48:57.140Z,4.80
2018-12-02T16:51:26.329Z,4.80
2018-12-02T16:53:55.583Z,4.80
2018-12-02T16:56:24.746Z,4.80
2018-12-02T16:59:03.910Z,4.80
2018-12-02T17:01:34.073Z,4.90
2018-12-02T17:04:03.867Z,4.90
2018-12-02T17:06:33.030Z,4.90
2018-12-02T17:09:02.392Z,4.90
2018-12-02T17:11:31.605Z,4.90
2018-12-02T17:14:00.747Z,4.80
2018-12-02T17:16:29.876Z,4.90
2018-12-02T17:18:59.072Z,4.90
2018-12-02T17:21:28.282Z,4.90
2018-12-02T17:23:57.446Z,5.00
2018-12-02T17:26:26.639Z,4.90
2018-12-02T17:28:55.955Z,5.00
2018-12-02T17:31:26.912Z,5.00
2018-12-02T17:33:56.057Z,5.00
2018-12-02T17:36:25.200Z,4.90
2018-12-02T17:39:02.228Z,5.00
2018-12-02T17:41:31.382Z,5.00
2018-12-02T17:44:00.513Z,5.00
2018-12-02T17:46:29.653Z,5.00
2018-12-02T17:48:58.865Z,5.00
2018-12-02T17:51:28.006Z,5.00
2018-12-02T17:53:57.143Z,5.00
2018-12-02T17:56:26.313Z,5.00
2018-12-02T17:58:55.586Z,5.00
2018-12-02T18:01:24.716Z,5.10
2018-12-02T18:03:53.905Z,5.10
2018-12-02T18:06:23.172Z,5.10
2018-12-02T18:08:52.436Z,5.10
2018-12-02T18:11:21.619Z,5.10
2018-12-02T18:13:50.831Z,5.20
2018-12-02T18:16:20.106Z,5.20
2018-12-02T18:18:49.275Z,5.20
2018-12-02T18:21:18.423Z,5.20
2018-12-02T18:23:47.691Z,5.20
2018-12-02T18:26:16.794Z,5.20
2018-12-02T18:28:45.976Z,5.20
2018-12-02T18:31:15.130Z,5.20
2018-12-02T18:33:44.344Z,5.20
2018-12-02T18:36:15.836Z,5.20
2018-12-02T18:38:46.267Z,5.20
2018-12-02T18:41:18.861Z,5.20
2018-12-02T18:43:48.001Z,5.20
2018-12-02T18:46:17.771Z,5.10
2018-12-02T18:48:46.949Z,5.20
2018-12-02T18:51:16.126Z,5.20
2018-12-02T18:53:45.384Z,5.20
2018-12-02T18:56:16.649Z,5.20
2018-12-02T18:58:43.809Z,5.20
2018-12-02T19:01:12.974Z,5.20
2018-12-02T19:03:42.167Z,5.20
2018-12-02T19:06:11.316Z,5.20
2018-12-02T19:08:40.548Z,5.20
2018-12-02T19:11:10.063Z,5.20
2018-12-02T19:13:43.494Z,5.20
2018-12-02T19:16:08.379Z,5.20
2018-12-02T19:18:37.818Z,5.20
2018-12-02T19:21:10.443Z,5.20
2018-12-02T19:23:39.614Z,5.20
2018-12-02T19:26:08.765Z,5.20
2018-12-02T19:28:37.940Z,5.20
2018-12-02T19:31:07.127Z,5.20
2018-12-02T19:33:36.330Z,5.20
2018-12-02T19:36:09.692Z,5.20
2018-12-02T19:38:39.482Z,5.20
2018-12-02T19:41:08.686Z,5.20
2018-12-02T19:43:37.821Z,5.20
2018-12-02T19:46:07.066Z,5.20
2018-12-02T19:48:36.304Z,5.20
2018-12-02T19:51:05.762Z,5.30
2018-12-02T19:53:34.884Z,5.30
2018-12-02T19:56:04.067Z,5.30
2018-12-02T19:58:33.292Z,5.30
2018-12-02T20:01:02.504Z,5.30
2018-12-02T20:03:31.677Z,5.30
2018-12-02T20:06:00.834Z,5.30
2018-12-02T20:08:30.036Z,5.30
2018-12-02T20:10:59.199Z,5.30
2018-12-02T20:13:28.479Z,5.30
2018-12-02T20:16:03.313Z,5.30
2018-12-02T20:18:32.491Z,5.30
2018-12-02T20:21:02.014Z,5.30
2018-12-02T20:23:36.647Z,5.30
2018-12-02T20:26:05.844Z,5.30
2018-12-02T20:28:37.966Z,5.30
2018-12-02T20:31:24.162Z,5.30
2018-12-02T20:33:53.350Z,5.30
2018-12-02T20:36:22.518Z,5.20
2018-12-02T20:38:51.745Z,5.20
2018-12-02T20:41:21.222Z,5.30
2018-12-02T20:43:50.348Z,5.20
2018-12-02T20:46:19.559Z,5.20
2018-12-02T20:48:48.730Z,5.20
2018-12-02T20:51:17.869Z,5.20
2018-12-02T20:53:47.037Z,5.20
2018-12-02T20:56:17.299Z,5.20
2018-12-02T20:58:46.475Z,5.20
2018-12-02T21:01:15.644Z,5.20
2018-12-02T21:03:46.776Z,5.20
2018-12-02T21:06:18.477Z,5.20
2018-12-02T21:08:47.653Z,5.20
2018-12-02T21:11:16.970Z,5.20
2018-12-02T21:13:46.101Z,5.20
2018-12-02T21:16:15.325Z,5.20
2018-12-02T21:18:45.201Z,5.20
2018-12-02T21:21:14.416Z,5.20
2018-12-02T21:23:43.711Z,5.10
2018-12-02T21:26:13.165Z,5.20
2018-12-02T21:28:42.586Z,5.20
2018-12-02T21:31:11.790Z,5.20
2018-12-02T21:33:41.872Z,5.20
2018-12-02T21:36:11.009Z,5.10
2018-12-02T21:38:40.442Z,5.10
2018-12-02T21:41:09.871Z,5.10
2018-12-02T21:43:38.963Z,5.10
2018-12-02T21:46:10.225Z,5.20
2018-12-02T21:48:39.710Z,5.20
2018-12-02T21:51:10.778Z,5.10
2018-12-02T21:53:40.120Z,5.10
2018-12-02T21:56:09.283Z,5.10
2018-12-02T21:58:38.484Z,5.10
2018-12-02T22:01:14.231Z,5.10
2018-12-02T22:03:44.375Z,5.10
2018-12-02T22:06:13.681Z,5.10
2018-12-02T22:08:43.141Z,5.10
2018-12-02T22:11:12.564Z,5.10
2018-12-02T22:13:43.595Z,5.10
2018-12-02T22:16:11.786Z,5.20
2018-12-02T22:18:41.104Z,5.20
2018-12-02T22:21:10.440Z,5.20
2018-12-02T22:23:40.438Z,5.20
2018-12-02T22:26:09.734Z,5.20
2018-12-02T22:28:39.136Z,5.10
2018-12-02T22:31:08.417Z,5.10
2018-12-02T22:33:37.654Z,5.10
2018-12-02T22:36:13.804Z,5.10
2018-12-02T22:38:37.868Z,5.10
2018-12-02T22:41:08.042Z,5.10
2018-12-02T22:43:37.282Z,5.10
2018-12-02T22:46:06.928Z,5.10
2018-12-02T22:48:36.771Z,5.00
2018-12-02T22:51:06.029Z,5.00
2018-12-02T22:53:35.468Z,4.90
2018-12-02T22:56:04.882Z,4.90
2018-12-02T22:58:35.208Z,4.90
2018-12-02T23:01:09.712Z,4.80
2018-12-02T23:03:39.024Z,4.80
2018-12-02T23:06:08.449Z,4.80
2018-12-02T23:08:37.649Z,4.80
2018-12-02T23:11:07.239Z,4.80
2018-12-02T23:13:36.413Z,4.80
2018-12-02T23:16:06.346Z,4.80
2018-12-02T23:18:37.505Z,4.80
2018-12-02T23:21:06.814Z,4.90
2018-12-02T23:23:36.293Z,4.90
2018-12-02T23:26:06.399Z,4.90
2018-12-02T23:28:36.381Z,4.90
2018-12-02T23:31:06.414Z,4.90
2018-12-02T23:33:36.330Z,4.90
2018-12-02T23:36:05.984Z,4.90
2018-12-02T23:38:35.388Z,4.80
2018-12-02T23:41:05.531Z,4.90
2018-12-02T23:43:34.859Z,4.90
2018-12-02T23:46:04.660Z,4.80
2018-12-02T23:48:33.953Z,4.80
2018-12-02T23:51:03.888Z,4.80
2018-12-02T23:53:33.058Z,4.80
2018-12-02T23:56:03.810Z,4.80
2018-12-02T23:58:32.949Z,4.80
